sensor_id;sensor_type;location;lat;lon;timestamp;P1;durP1;ratioP1;P2;durP2;ratioP2
1691;SDS011;843;52.054;8.552;2022-12-18T00:00:39;42.70;;;24.63;;
1691;SDS011;843;52.054;8.552;2022-12-18T00:03:07;40.25;;;24.48;;
1691;SDS011;843;52.054;8.552;2022-12-18T00:05:34;47.15;;;25.77;;
1691;SDS011;843;52.054;8.552;2022-12-18T00:08:02;40.42;;;26.15;;
1691;SDS011;843;52.054;8.552;2022-12-18T00:10:29;39.42;;;22.45;;
1691;SDS011;843;52.054;8.552;2022-12-18T00:12:56;40.60;;;22.60;;
1691;SDS011;843;52.054;8.552;2022-12-18T00:15:22;39.58;;;25.60;;
1691;SDS011;843;52.054;8.552;2022-12-18T00:17:49;46.58;;;23.45;;
1691;SDS011;843;52.054;8.552;2022-12-18T00:20:16;39.53;;;22.75;;
1691;SDS011;843;52.054;8.552;2022-12-18T00:22:50;46.38;;;22.25;;
1691;SDS011;843;52.054;8.552;2022-12-18T00:25:18;37.97;;;22.85;;
1691;SDS011;843;52.054;8.552;2022-12-18T00:27:45;39.88;;;22.10;;
1691;SDS011;843;52.054;8.552;2022-12-18T00:30:12;43.65;;;22.40;;
1691;SDS011;843;52.054;8.552;2022-12-18T00:32:38;40.15;;;22.80;;
1691;SDS011;843;52.054;8.552;2022-12-18T00:35:05;34.92;;;21.42;;
1691;SDS011;843;52.054;8.552;2022-12-18T00:37:32;40.75;;;22.35;;
1691;SDS011;843;52.054;8.552;2022-12-18T00:40:00;48.60;;;27.30;;
1691;SDS011;843;52.054;8.552;2022-12-18T00:42:28;52.42;;;28.88;;
1691;SDS011;843;52.054;8.552;2022-12-18T00:45:12;35.92;;;20.77;;
1691;SDS011;843;52.054;8.552;2022-12-18T00:47:39;39.88;;;21.20;;
1691;SDS011;843;52.054;8.552;2022-12-18T00:50:06;35.05;;;20.70;;
1691;SDS011;843;52.054;8.552;2022-12-18T00:52:34;33.55;;;21.73;;
1691;SDS011;843;52.054;8.552;2022-12-18T00:55:01;37.10;;;20.80;;
1691;SDS011;843;52.054;8.552;2022-12-18T00:57:29;29.42;;;19.92;;
1691;SDS011;843;52.054;8.552;2022-12-18T00:59:55;40.03;;;22.77;;
1691;SDS011;843;52.054;8.552;2022-12-18T01:02:22;34.20;;;21.45;;
1691;SDS011;843;52.054;8.552;2022-12-18T01:04:49;36.40;;;22.08;;
1691;SDS011;843;52.054;8.552;2022-12-18T01:07:16;36.63;;;21.50;;
1691;SDS011;843;52.054;8.552;2022-12-18T01:09:42;35.55;;;20.65;;
1691;SDS011;843;52.054;8.552;2022-12-18T01:12:09;40.03;;;21.02;;
1691;SDS011;843;52.054;8.552;2022-12-18T01:14:37;38.97;;;21.83;;
1691;SDS011;843;52.054;8.552;2022-12-18T01:17:04;47.22;;;23.90;;
1691;SDS011;843;52.054;8.552;2022-12-18T01:19:31;43.90;;;22.25;;
1691;SDS011;843;52.054;8.552;2022-12-18T01:21:58;36.92;;;21.52;;
1691;SDS011;843;52.054;8.552;2022-12-18T01:24:25;33.50;;;21.15;;
1691;SDS011;843;52.054;8.552;2022-12-18T01:26:51;36.63;;;20.95;;
1691;SDS011;843;52.054;8.552;2022-12-18T01:29:18;39.50;;;22.75;;
1691;SDS011;843;52.054;8.552;2022-12-18T01:31:46;45.05;;;22.05;;
1691;SDS011;843;52.054;8.552;2022-12-18T01:34:13;38.65;;;22.63;;
1691;SDS011;843;52.054;8.552;2022-12-18T01:36:40;40.60;;;20.00;;
1691;SDS011;843;52.054;8.552;2022-12-18T01:39:08;38.08;;;21.23;;
1691;SDS011;843;52.054;8.552;2022-12-18T01:41:36;38.10;;;22.73;;
1691;SDS011;843;52.054;8.552;2022-12-18T01:47:26;39.30;;;22.83;;
1691;SDS011;843;52.054;8.552;2022-12-18T01:49:56;38.10;;;20.50;;
1691;SDS011;843;52.054;8.552;2022-12-18T01:52:24;39.58;;;22.20;;
1691;SDS011;843;52.054;8.552;2022-12-18T01:54:52;42.13;;;22.35;;
1691;SDS011;843;52.054;8.552;2022-12-18T01:57:19;41.30;;;23.42;;
1691;SDS011;843;52.054;8.552;2022-12-18T01:59:47;31.35;;;21.80;;
1691;SDS011;843;52.054;8.552;2022-12-18T02:02:16;36.38;;;22.75;;
1691;SDS011;843;52.054;8.552;2022-12-18T02:04:44;36.65;;;21.52;;
1691;SDS011;843;52.054;8.552;2022-12-18T02:07:12;39.63;;;22.20;;
1691;SDS011;843;52.054;8.552;2022-12-18T02:09:44;34.80;;;20.90;;
1691;SDS011;843;52.054;8.552;2022-12-18T02:12:13;37.90;;;22.02;;
1691;SDS011;843;52.054;8.552;2022-12-18T02:14:44;36.67;;;22.55;;
1691;SDS011;843;52.054;8.552;2022-12-18T02:17:16;35.45;;;21.75;;
1691;SDS011;843;52.054;8.552;2022-12-18T02:19:51;38.67;;;20.88;;
1691;SDS011;843;52.054;8.552;2022-12-18T02:22:25;38.20;;;21.83;;
1691;SDS011;843;52.054;8.552;2022-12-18T02:24:59;41.28;;;19.30;;
1691;SDS011;843;52.054;8.552;2022-12-18T02:27:30;29.23;;;19.88;;
1691;SDS011;843;52.054;8.552;2022-12-18T02:29:59;37.00;;;22.30;;
1691;SDS011;843;52.054;8.552;2022-12-18T02:32:28;31.73;;;18.73;;
1691;SDS011;843;52.054;8.552;2022-12-18T02:34:57;35.30;;;19.08;;
1691;SDS011;843;52.054;8.552;2022-12-18T02:37:25;40.20;;;19.25;;
1691;SDS011;843;52.054;8.552;2022-12-18T02:39:53;38.10;;;19.50;;
1691;SDS011;843;52.054;8.552;2022-12-18T02:42:21;35.58;;;20.45;;
1691;SDS011;843;52.054;8.552;2022-12-18T02:44:50;31.95;;;19.17;;
1691;SDS011;843;52.054;8.552;2022-12-18T02:47:18;31.02;;;17.98;;
1691;SDS011;843;52.054;8.552;2022-12-18T02:49:49;31.98;;;19.13;;
1691;SDS011;843;52.054;8.552;2022-12-18T02:52:23;34.75;;;19.50;;
1691;SDS011;843;52.054;8.552;2022-12-18T02:54:55;31.90;;;17.52;;
1691;SDS011;843;52.054;8.552;2022-12-18T02:57:29;30.27;;;18.38;;
1691;SDS011;843;52.054;8.552;2022-12-18T03:00:04;26.55;;;16.92;;
1691;SDS011;843;52.054;8.552;2022-12-18T03:02:35;28.90;;;17.80;;
1691;SDS011;843;52.054;8.552;2022-12-18T03:05:07;26.95;;;17.55;;
1691;SDS011;843;52.054;8.552;2022-12-18T03:07:38;31.02;;;17.92;;
1691;SDS011;843;52.054;8.552;2022-12-18T03:10:08;28.13;;;16.42;;
1691;SDS011;843;52.054;8.552;2022-12-18T03:12:40;31.30;;;17.33;;
1691;SDS011;843;52.054;8.552;2022-12-18T03:15:11;30.40;;;18.75;;
1691;SDS011;843;52.054;8.552;2022-12-18T03:17:41;43.78;;;21.08;;
1691;SDS011;843;52.054;8.552;2022-12-18T03:20:12;32.80;;;18.85;;
1691;SDS011;843;52.054;8.552;2022-12-18T03:22:41;32.08;;;18.58;;
1691;SDS011;843;52.054;8.552;2022-12-18T03:25:10;35.47;;;19.55;;
1691;SDS011;843;52.054;8.552;2022-12-18T03:27:38;31.05;;;17.80;;
1691;SDS011;843;52.054;8.552;2022-12-18T03:30:09;31.88;;;18.23;;
1691;SDS011;843;52.054;8.552;2022-12-18T03:32:39;27.90;;;17.17;;
1691;SDS011;843;52.054;8.552;2022-12-18T03:35:09;29.27;;;18.08;;
1691;SDS011;843;52.054;8.552;2022-12-18T03:37:37;28.10;;;17.70;;
1691;SDS011;843;52.054;8.552;2022-12-18T03:40:04;30.83;;;18.42;;
1691;SDS011;843;52.054;8.552;2022-12-18T03:42:32;27.88;;;16.65;;
1691;SDS011;843;52.054;8.552;2022-12-18T03:45:06;28.08;;;16.00;;
1691;SDS011;843;52.054;8.552;2022-12-18T03:47:38;27.67;;;16.70;;
1691;SDS011;843;52.054;8.552;2022-12-18T03:50:09;25.10;;;15.70;;
1691;SDS011;843;52.054;8.552;2022-12-18T03:52:40;28.48;;;19.40;;
1691;SDS011;843;52.054;8.552;2022-12-18T03:55:09;33.45;;;16.98;;
1691;SDS011;843;52.054;8.552;2022-12-18T03:57:36;25.70;;;14.95;;
1691;SDS011;843;52.054;8.552;2022-12-18T04:00:05;26.30;;;17.75;;
1691;SDS011;843;52.054;8.552;2022-12-18T04:02:33;24.05;;;15.63;;
1691;SDS011;843;52.054;8.552;2022-12-18T04:05:03;24.92;;;15.55;;
1691;SDS011;843;52.054;8.552;2022-12-18T04:07:31;22.77;;;15.40;;
1691;SDS011;843;52.054;8.552;2022-12-18T04:09:59;28.00;;;15.75;;
1691;SDS011;843;52.054;8.552;2022-12-18T04:12:28;23.27;;;15.32;;
1691;SDS011;843;52.054;8.552;2022-12-18T04:14:55;37.88;;;16.83;;
1691;SDS011;843;52.054;8.552;2022-12-18T04:17:22;25.83;;;15.65;;
1691;SDS011;843;52.054;8.552;2022-12-18T04:19:49;29.92;;;15.15;;
1691;SDS011;843;52.054;8.552;2022-12-18T04:22:17;27.20;;;17.23;;
1691;SDS011;843;52.054;8.552;2022-12-18T04:24:44;29.00;;;15.70;;
1691;SDS011;843;52.054;8.552;2022-12-18T04:27:11;32.83;;;17.50;;
1691;SDS011;843;52.054;8.552;2022-12-18T04:29:37;31.52;;;13.48;;
1691;SDS011;843;52.054;8.552;2022-12-18T04:32:04;25.83;;;15.25;;
1691;SDS011;843;52.054;8.552;2022-12-18T04:34:31;22.85;;;14.85;;
1691;SDS011;843;52.054;8.552;2022-12-18T04:36:58;26.73;;;14.93;;
1691;SDS011;843;52.054;8.552;2022-12-18T04:39:26;25.50;;;15.63;;
1691;SDS011;843;52.054;8.552;2022-12-18T04:41:53;25.08;;;15.40;;
1691;SDS011;843;52.054;8.552;2022-12-18T04:44:19;25.85;;;15.20;;
1691;SDS011;843;52.054;8.552;2022-12-18T04:46:46;22.92;;;13.93;;
1691;SDS011;843;52.054;8.552;2022-12-18T04:49:12;27.05;;;14.90;;
1691;SDS011;843;52.054;8.552;2022-12-18T04:51:39;28.25;;;15.40;;
1691;SDS011;843;52.054;8.552;2022-12-18T04:54:06;21.92;;;13.57;;
1691;SDS011;843;52.054;8.552;2022-12-18T04:56:34;22.05;;;14.18;;
1691;SDS011;843;52.054;8.552;2022-12-18T04:59:00;22.30;;;14.15;;
1691;SDS011;843;52.054;8.552;2022-12-18T05:01:27;25.15;;;14.63;;
1691;SDS011;843;52.054;8.552;2022-12-18T05:03:54;22.67;;;14.32;;
1691;SDS011;843;52.054;8.552;2022-12-18T05:06:20;22.90;;;14.48;;
1691;SDS011;843;52.054;8.552;2022-12-18T05:08:47;24.65;;;14.95;;
1691;SDS011;843;52.054;8.552;2022-12-18T05:11:14;25.98;;;13.55;;
1691;SDS011;843;52.054;8.552;2022-12-18T05:13:43;25.23;;;15.23;;
1691;SDS011;843;52.054;8.552;2022-12-18T05:16:10;23.80;;;14.80;;
1691;SDS011;843;52.054;8.552;2022-12-18T05:18:37;24.52;;;16.00;;
1691;SDS011;843;52.054;8.552;2022-12-18T05:21:04;21.50;;;14.57;;
1691;SDS011;843;52.054;8.552;2022-12-18T05:23:31;24.50;;;17.55;;
1691;SDS011;843;52.054;8.552;2022-12-18T05:25:58;27.67;;;16.15;;
1691;SDS011;843;52.054;8.552;2022-12-18T05:28:26;26.58;;;17.20;;
1691;SDS011;843;52.054;8.552;2022-12-18T05:30:57;20.45;;;14.20;;
1691;SDS011;843;52.054;8.552;2022-12-18T05:33:26;28.38;;;15.23;;
1691;SDS011;843;52.054;8.552;2022-12-18T05:35:55;27.90;;;15.65;;
1691;SDS011;843;52.054;8.552;2022-12-18T05:38:24;29.65;;;16.83;;
1691;SDS011;843;52.054;8.552;2022-12-18T05:40:52;21.80;;;13.73;;
1691;SDS011;843;52.054;8.552;2022-12-18T05:43:19;24.48;;;14.48;;
1691;SDS011;843;52.054;8.552;2022-12-18T05:45:47;23.02;;;14.48;;
1691;SDS011;843;52.054;8.552;2022-12-18T05:48:16;22.88;;;13.15;;
1691;SDS011;843;52.054;8.552;2022-12-18T05:50:44;23.33;;;12.98;;
1691;SDS011;843;52.054;8.552;2022-12-18T05:53:11;18.88;;;13.20;;
1691;SDS011;843;52.054;8.552;2022-12-18T05:55:39;20.50;;;13.27;;
1691;SDS011;843;52.054;8.552;2022-12-18T05:58:07;23.85;;;13.73;;
1691;SDS011;843;52.054;8.552;2022-12-18T06:00:35;25.60;;;14.73;;
1691;SDS011;843;52.054;8.552;2022-12-18T06:03:04;21.02;;;14.25;;
1691;SDS011;843;52.054;8.552;2022-12-18T06:05:35;21.88;;;13.73;;
1691;SDS011;843;52.054;8.552;2022-12-18T06:08:02;28.13;;;15.35;;
1691;SDS011;843;52.054;8.552;2022-12-18T06:10:29;21.85;;;13.82;;
1691;SDS011;843;52.054;8.552;2022-12-18T06:12:56;23.95;;;15.98;;
1691;SDS011;843;52.054;8.552;2022-12-18T06:15:22;22.63;;;13.18;;
1691;SDS011;843;52.054;8.552;2022-12-18T06:17:49;20.75;;;14.10;;
1691;SDS011;843;52.054;8.552;2022-12-18T06:20:16;20.20;;;14.25;;
1691;SDS011;843;52.054;8.552;2022-12-18T06:22:45;23.90;;;13.98;;
1691;SDS011;843;52.054;8.552;2022-12-18T06:25:12;22.90;;;13.65;;
1691;SDS011;843;52.054;8.552;2022-12-18T06:27:39;25.13;;;14.50;;
1691;SDS011;843;52.054;8.552;2022-12-18T06:30:06;26.08;;;13.90;;
1691;SDS011;843;52.054;8.552;2022-12-18T06:32:34;21.63;;;13.35;;
1691;SDS011;843;52.054;8.552;2022-12-18T06:35:01;25.08;;;14.40;;
1691;SDS011;843;52.054;8.552;2022-12-18T06:37:28;24.95;;;14.30;;
1691;SDS011;843;52.054;8.552;2022-12-18T06:39:58;23.58;;;14.27;;
1691;SDS011;843;52.054;8.552;2022-12-18T06:42:26;24.98;;;15.50;;
1691;SDS011;843;52.054;8.552;2022-12-18T06:44:52;24.50;;;14.32;;
1691;SDS011;843;52.054;8.552;2022-12-18T06:47:19;27.15;;;14.57;;
1691;SDS011;843;52.054;8.552;2022-12-18T06:49:46;23.23;;;15.05;;
1691;SDS011;843;52.054;8.552;2022-12-18T06:52:13;29.73;;;15.48;;
1691;SDS011;843;52.054;8.552;2022-12-18T06:54:43;29.35;;;17.13;;
1691;SDS011;843;52.054;8.552;2022-12-18T06:57:11;40.75;;;20.23;;
1691;SDS011;843;52.054;8.552;2022-12-18T06:59:38;27.88;;;17.30;;
1691;SDS011;843;52.054;8.552;2022-12-18T07:02:04;23.00;;;14.02;;
1691;SDS011;843;52.054;8.552;2022-12-18T07:04:31;27.58;;;14.85;;
1691;SDS011;843;52.054;8.552;2022-12-18T07:06:58;27.50;;;14.82;;
1691;SDS011;843;52.054;8.552;2022-12-18T07:09:25;24.50;;;15.57;;
1691;SDS011;843;52.054;8.552;2022-12-18T07:11:51;24.73;;;15.80;;
1691;SDS011;843;52.054;8.552;2022-12-18T07:14:19;30.83;;;16.73;;
1691;SDS011;843;52.054;8.552;2022-12-18T07:16:47;32.88;;;19.83;;
1691;SDS011;843;52.054;8.552;2022-12-18T07:19:13;153.60;;;64.68;;
1691;SDS011;843;52.054;8.552;2022-12-18T07:21:40;34.13;;;17.77;;
1691;SDS011;843;52.054;8.552;2022-12-18T07:24:07;109.75;;;52.00;;
1691;SDS011;843;52.054;8.552;2022-12-18T07:26:33;26.90;;;15.95;;
1691;SDS011;843;52.054;8.552;2022-12-18T07:29:00;23.88;;;15.90;;
1691;SDS011;843;52.054;8.552;2022-12-18T07:31:29;32.38;;;16.05;;
1691;SDS011;843;52.054;8.552;2022-12-18T07:33:56;23.83;;;14.02;;
1691;SDS011;843;52.054;8.552;2022-12-18T07:36:23;25.27;;;16.70;;
1691;SDS011;843;52.054;8.552;2022-12-18T07:38:50;26.92;;;16.05;;
1691;SDS011;843;52.054;8.552;2022-12-18T07:41:17;22.90;;;13.90;;
1691;SDS011;843;52.054;8.552;2022-12-18T07:43:44;29.20;;;16.60;;
1691;SDS011;843;52.054;8.552;2022-12-18T07:46:12;21.92;;;14.57;;
1691;SDS011;843;52.054;8.552;2022-12-18T07:48:41;24.13;;;13.95;;
1691;SDS011;843;52.054;8.552;2022-12-18T07:51:08;29.75;;;16.85;;
1691;SDS011;843;52.054;8.552;2022-12-18T07:53:35;28.55;;;14.80;;
1691;SDS011;843;52.054;8.552;2022-12-18T07:56:03;27.92;;;14.95;;
1691;SDS011;843;52.054;8.552;2022-12-18T07:58:31;36.70;;;24.63;;
1691;SDS011;843;52.054;8.552;2022-12-18T08:01:02;28.48;;;17.65;;
1691;SDS011;843;52.054;8.552;2022-12-18T08:03:29;23.40;;;14.55;;
1691;SDS011;843;52.054;8.552;2022-12-18T08:05:59;29.58;;;15.05;;
1691;SDS011;843;52.054;8.552;2022-12-18T08:08:26;22.40;;;14.50;;
1691;SDS011;843;52.054;8.552;2022-12-18T08:10:53;26.48;;;17.77;;
1691;SDS011;843;52.054;8.552;2022-12-18T08:13:20;27.63;;;15.63;;
1691;SDS011;843;52.054;8.552;2022-12-18T08:15:54;32.25;;;19.67;;
1691;SDS011;843;52.054;8.552;2022-12-18T08:18:23;30.35;;;17.35;;
1691;SDS011;843;52.054;8.552;2022-12-18T08:20:50;35.05;;;20.58;;
1691;SDS011;843;52.054;8.552;2022-12-18T08:23:18;45.92;;;22.90;;
1691;SDS011;843;52.054;8.552;2022-12-18T08:25:45;34.33;;;23.55;;
1691;SDS011;843;52.054;8.552;2022-12-18T08:28:12;31.27;;;19.27;;
1691;SDS011;843;52.054;8.552;2022-12-18T08:30:38;27.67;;;15.65;;
1691;SDS011;843;52.054;8.552;2022-12-18T08:33:05;28.67;;;17.30;;
1691;SDS011;843;52.054;8.552;2022-12-18T08:35:34;32.78;;;20.35;;
1691;SDS011;843;52.054;8.552;2022-12-18T08:38:01;44.10;;;29.67;;
1691;SDS011;843;52.054;8.552;2022-12-18T08:40:30;35.80;;;22.23;;
1691;SDS011;843;52.054;8.552;2022-12-18T08:42:56;42.90;;;27.98;;
1691;SDS011;843;52.054;8.552;2022-12-18T08:45:41;54.13;;;36.08;;
1691;SDS011;843;52.054;8.552;2022-12-18T08:48:07;68.45;;;43.03;;
1691;SDS011;843;52.054;8.552;2022-12-18T08:50:34;62.70;;;38.40;;
1691;SDS011;843;52.054;8.552;2022-12-18T08:53:01;63.85;;;40.80;;
1691;SDS011;843;52.054;8.552;2022-12-18T08:55:28;65.75;;;39.30;;
1691;SDS011;843;52.054;8.552;2022-12-18T08:57:56;76.78;;;51.10;;
1691;SDS011;843;52.054;8.552;2022-12-18T09:00:23;62.15;;;44.60;;
1691;SDS011;843;52.054;8.552;2022-12-18T09:02:49;80.78;;;50.80;;
1691;SDS011;843;52.054;8.552;2022-12-18T09:05:16;56.85;;;39.70;;
1691;SDS011;843;52.054;8.552;2022-12-18T09:07:43;49.78;;;32.15;;
1691;SDS011;843;52.054;8.552;2022-12-18T09:10:10;50.40;;;34.50;;
1691;SDS011;843;52.054;8.552;2022-12-18T09:12:38;54.78;;;40.10;;
1691;SDS011;843;52.054;8.552;2022-12-18T09:15:05;41.72;;;30.52;;
1691;SDS011;843;52.054;8.552;2022-12-18T09:17:32;37.40;;;26.30;;
1691;SDS011;843;52.054;8.552;2022-12-18T09:19:59;43.40;;;26.35;;
1691;SDS011;843;52.054;8.552;2022-12-18T09:22:26;35.10;;;25.80;;
1691;SDS011;843;52.054;8.552;2022-12-18T09:24:53;38.47;;;27.35;;
1691;SDS011;843;52.054;8.552;2022-12-18T09:27:20;34.40;;;25.40;;
1691;SDS011;843;52.054;8.552;2022-12-18T09:29:48;38.92;;;26.38;;
1691;SDS011;843;52.054;8.552;2022-12-18T09:32:14;44.05;;;27.95;;
1691;SDS011;843;52.054;8.552;2022-12-18T09:34:41;39.50;;;27.10;;
1691;SDS011;843;52.054;8.552;2022-12-18T09:37:08;37.42;;;23.95;;
1691;SDS011;843;52.054;8.552;2022-12-18T09:39:35;31.25;;;21.38;;
1691;SDS011;843;52.054;8.552;2022-12-18T09:42:02;26.27;;;19.42;;
1691;SDS011;843;52.054;8.552;2022-12-18T09:44:29;25.17;;;18.23;;
1691;SDS011;843;52.054;8.552;2022-12-18T09:49:42;25.08;;;17.50;;
1691;SDS011;843;52.054;8.552;2022-12-18T09:52:12;25.17;;;16.98;;
1691;SDS011;843;52.054;8.552;2022-12-18T09:54:43;22.20;;;15.43;;
1691;SDS011;843;52.054;8.552;2022-12-18T09:57:13;28.45;;;16.77;;
1691;SDS011;843;52.054;8.552;2022-12-18T09:59:41;22.63;;;15.90;;
1691;SDS011;843;52.054;8.552;2022-12-18T10:02:14;20.07;;;14.63;;
1691;SDS011;843;52.054;8.552;2022-12-18T10:04:42;19.50;;;13.90;;
1691;SDS011;843;52.054;8.552;2022-12-18T10:07:10;18.60;;;13.47;;
1691;SDS011;843;52.054;8.552;2022-12-18T10:09:42;20.20;;;13.77;;
1691;SDS011;843;52.054;8.552;2022-12-18T10:12:13;21.13;;;13.50;;
1691;SDS011;843;52.054;8.552;2022-12-18T10:14:47;20.43;;;12.70;;
1691;SDS011;843;52.054;8.552;2022-12-18T10:17:21;17.97;;;11.90;;
1691;SDS011;843;52.054;8.552;2022-12-18T10:19:52;19.03;;;13.03;;
1691;SDS011;843;52.054;8.552;2022-12-18T10:22:25;15.37;;;11.37;;
1691;SDS011;843;52.054;8.552;2022-12-18T10:24:59;15.37;;;10.33;;
1691;SDS011;843;52.054;8.552;2022-12-18T10:27:30;19.43;;;10.77;;
1691;SDS011;843;52.054;8.552;2022-12-18T10:29:57;17.67;;;11.97;;
1691;SDS011;843;52.054;8.552;2022-12-18T10:32:27;20.17;;;15.13;;
1691;SDS011;843;52.054;8.552;2022-12-18T10:34:55;19.57;;;12.20;;
1691;SDS011;843;52.054;8.552;2022-12-18T10:37:24;15.77;;;9.83;;
1691;SDS011;843;52.054;8.552;2022-12-18T10:40:06;16.05;;;12.57;;
1691;SDS011;843;52.054;8.552;2022-12-18T10:42:37;14.30;;;10.53;;
1691;SDS011;843;52.054;8.552;2022-12-18T10:45:08;15.20;;;12.48;;
1691;SDS011;843;52.054;8.552;2022-12-18T10:47:40;12.23;;;9.13;;
1691;SDS011;843;52.054;8.552;2022-12-18T10:50:14;14.67;;;10.63;;
1691;SDS011;843;52.054;8.552;2022-12-18T10:52:45;20.57;;;14.93;;
1691;SDS011;843;52.054;8.552;2022-12-18T10:55:20;15.13;;;9.70;;
1691;SDS011;843;52.054;8.552;2022-12-18T10:57:48;14.40;;;10.17;;
1691;SDS011;843;52.054;8.552;2022-12-18T11:00:21;12.47;;;8.50;;
1691;SDS011;843;52.054;8.552;2022-12-18T11:02:54;15.30;;;9.60;;
1691;SDS011;843;52.054;8.552;2022-12-18T11:05:26;11.70;;;8.30;;
1691;SDS011;843;52.054;8.552;2022-12-18T11:07:55;13.17;;;8.70;;
1691;SDS011;843;52.054;8.552;2022-12-18T11:10:23;14.30;;;7.80;;
1691;SDS011;843;52.054;8.552;2022-12-18T11:12:53;10.93;;;7.30;;
1691;SDS011;843;52.054;8.552;2022-12-18T11:15:21;12.23;;;7.90;;
1691;SDS011;843;52.054;8.552;2022-12-18T11:17:50;10.50;;;7.13;;
1691;SDS011;843;52.054;8.552;2022-12-18T11:20:21;11.10;;;7.50;;
1691;SDS011;843;52.054;8.552;2022-12-18T11:22:54;14.30;;;7.97;;
1691;SDS011;843;52.054;8.552;2022-12-18T11:25:22;11.93;;;7.30;;
1691;SDS011;843;52.054;8.552;2022-12-18T11:27:50;14.27;;;7.60;;
1691;SDS011;843;52.054;8.552;2022-12-18T11:30:23;13.00;;;9.00;;
1691;SDS011;843;52.054;8.552;2022-12-18T11:32:51;19.33;;;7.50;;
1691;SDS011;843;52.054;8.552;2022-12-18T11:35:22;13.13;;;8.77;;
1691;SDS011;843;52.054;8.552;2022-12-18T11:37:56;11.90;;;7.20;;
1691;SDS011;843;52.054;8.552;2022-12-18T11:40:30;10.30;;;8.20;;
1691;SDS011;843;52.054;8.552;2022-12-18T11:43:01;14.83;;;9.13;;
1691;SDS011;843;52.054;8.552;2022-12-18T11:45:31;10.97;;;7.17;;
1691;SDS011;843;52.054;8.552;2022-12-18T11:48:02;13.67;;;8.57;;
1691;SDS011;843;52.054;8.552;2022-12-18T11:50:38;13.50;;;8.07;;
1691;SDS011;843;52.054;8.552;2022-12-18T11:53:09;10.63;;;7.17;;
1691;SDS011;843;52.054;8.552;2022-12-18T11:55:39;11.40;;;7.50;;
1691;SDS011;843;52.054;8.552;2022-12-18T11:58:11;13.43;;;7.87;;
1691;SDS011;843;52.054;8.552;2022-12-18T12:00:43;13.07;;;9.10;;
1691;SDS011;843;52.054;8.552;2022-12-18T12:03:27;14.90;;;8.87;;
1691;SDS011;843;52.054;8.552;2022-12-18T12:06:16;12.00;;;8.53;;
1691;SDS011;843;52.054;8.552;2022-12-18T12:08:51;11.83;;;7.93;;
1691;SDS011;843;52.054;8.552;2022-12-18T12:11:26;11.80;;;8.00;;
1691;SDS011;843;52.054;8.552;2022-12-18T12:14:03;15.37;;;7.60;;
1691;SDS011;843;52.054;8.552;2022-12-18T12:16:41;8.53;;;7.37;;
1691;SDS011;843;52.054;8.552;2022-12-18T12:19:15;12.40;;;8.37;;
1691;SDS011;843;52.054;8.552;2022-12-18T12:21:51;15.93;;;8.40;;
1691;SDS011;843;52.054;8.552;2022-12-18T12:24:23;11.13;;;7.53;;
1691;SDS011;843;52.054;8.552;2022-12-18T12:27:00;13.90;;;7.43;;
1691;SDS011;843;52.054;8.552;2022-12-18T12:29:36;13.05;;;8.45;;
1691;SDS011;843;52.054;8.552;2022-12-18T12:32:10;10.50;;;6.67;;
1691;SDS011;843;52.054;8.552;2022-12-18T12:34:44;11.20;;;8.40;;
1691;SDS011;843;52.054;8.552;2022-12-18T12:37:22;11.03;;;8.00;;
1691;SDS011;843;52.054;8.552;2022-12-18T12:39:55;17.40;;;12.10;;
1691;SDS011;843;52.054;8.552;2022-12-18T12:42:25;11.17;;;9.10;;
1691;SDS011;843;52.054;8.552;2022-12-18T12:45:15;16.13;;;11.18;;
1691;SDS011;843;52.054;8.552;2022-12-18T12:47:44;12.90;;;9.13;;
1691;SDS011;843;52.054;8.552;2022-12-18T12:50:13;11.43;;;8.80;;
1691;SDS011;843;52.054;8.552;2022-12-18T12:52:45;14.33;;;10.77;;
1691;SDS011;843;52.054;8.552;2022-12-18T12:55:14;9.25;;;7.30;;
1691;SDS011;843;52.054;8.552;2022-12-18T12:57:43;13.97;;;9.00;;
1691;SDS011;843;52.054;8.552;2022-12-18T13:00:13;16.40;;;9.50;;
1691;SDS011;843;52.054;8.552;2022-12-18T13:02:42;13.32;;;9.10;;
1691;SDS011;843;52.054;8.552;2022-12-18T13:05:16;14.98;;;10.10;;
1691;SDS011;843;52.054;8.552;2022-12-18T13:07:49;12.82;;;8.23;;
1691;SDS011;843;52.054;8.552;2022-12-18T13:10:31;12.15;;;9.20;;
1691;SDS011;843;52.054;8.552;2022-12-18T13:13:00;11.88;;;7.50;;
1691;SDS011;843;52.054;8.552;2022-12-18T13:15:31;12.02;;;8.48;;
1691;SDS011;843;52.054;8.552;2022-12-18T13:18:16;12.47;;;7.27;;
1691;SDS011;843;52.054;8.552;2022-12-18T13:20:45;10.93;;;7.70;;
1691;SDS011;843;52.054;8.552;2022-12-18T13:23:25;12.77;;;7.50;;
1691;SDS011;843;52.054;8.552;2022-12-18T13:25:54;13.57;;;8.30;;
1691;SDS011;843;52.054;8.552;2022-12-18T13:28:21;17.35;;;8.65;;
1691;SDS011;843;52.054;8.552;2022-12-18T13:30:54;14.00;;;8.13;;
1691;SDS011;843;52.054;8.552;2022-12-18T13:45:36;11.43;;;8.23;;
1691;SDS011;843;52.054;8.552;2022-12-18T13:48:04;12.88;;;7.45;;
1691;SDS011;843;52.054;8.552;2022-12-18T13:50:37;13.15;;;8.05;;
1691;SDS011;843;52.054;8.552;2022-12-18T13:53:05;12.50;;;8.10;;
1691;SDS011;843;52.054;8.552;2022-12-18T13:55:34;8.90;;;6.60;;
1691;SDS011;843;52.054;8.552;2022-12-18T13:58:04;10.40;;;7.10;;
1691;SDS011;843;52.054;8.552;2022-12-18T14:00:31;13.93;;;8.10;;
1691;SDS011;843;52.054;8.552;2022-12-18T14:02:58;12.30;;;7.55;;
1691;SDS011;843;52.054;8.552;2022-12-18T14:05:26;10.57;;;8.45;;
1691;SDS011;843;52.054;8.552;2022-12-18T14:07:55;12.02;;;8.63;;
1691;SDS011;843;52.054;8.552;2022-12-18T14:10:26;11.77;;;8.48;;
1691;SDS011;843;52.054;8.552;2022-12-18T14:12:57;9.90;;;8.30;;
1691;SDS011;843;52.054;8.552;2022-12-18T14:15:30;11.27;;;7.72;;
1691;SDS011;843;52.054;8.552;2022-12-18T14:18:00;15.95;;;8.57;;
1691;SDS011;843;52.054;8.552;2022-12-18T14:20:29;11.52;;;7.47;;
1691;SDS011;843;52.054;8.552;2022-12-18T14:22:57;12.00;;;7.80;;
1691;SDS011;843;52.054;8.552;2022-12-18T14:25:26;15.43;;;10.60;;
1691;SDS011;843;52.054;8.552;2022-12-18T14:28:00;13.85;;;7.50;;
1691;SDS011;843;52.054;8.552;2022-12-18T14:30:39;11.48;;;7.68;;
1691;SDS011;843;52.054;8.552;2022-12-18T14:33:09;11.30;;;7.93;;
1691;SDS011;843;52.054;8.552;2022-12-18T14:35:37;13.82;;;9.30;;
1691;SDS011;843;52.054;8.552;2022-12-18T14:38:09;10.68;;;7.80;;
1691;SDS011;843;52.054;8.552;2022-12-18T14:40:37;10.83;;;7.80;;
1691;SDS011;843;52.054;8.552;2022-12-18T14:43:08;14.87;;;8.70;;
1691;SDS011;843;52.054;8.552;2022-12-18T14:45:38;11.45;;;8.05;;
1691;SDS011;843;52.054;8.552;2022-12-18T14:48:06;12.57;;;7.90;;
1691;SDS011;843;52.054;8.552;2022-12-18T14:50:33;13.23;;;11.32;;
1691;SDS011;843;52.054;8.552;2022-12-18T14:53:00;11.77;;;8.10;;
1691;SDS011;843;52.054;8.552;2022-12-18T14:55:27;26.70;;;24.23;;
1691;SDS011;843;52.054;8.552;2022-12-18T14:57:54;11.35;;;7.93;;
1691;SDS011;843;52.054;8.552;2022-12-18T15:00:24;11.07;;;9.30;;
1691;SDS011;843;52.054;8.552;2022-12-18T15:02:52;10.07;;;8.07;;
1691;SDS011;843;52.054;8.552;2022-12-18T15:05:21;12.43;;;8.05;;
1691;SDS011;843;52.054;8.552;2022-12-18T15:07:53;9.30;;;7.15;;
1691;SDS011;843;52.054;8.552;2022-12-18T15:10:21;14.25;;;8.25;;
1691;SDS011;843;52.054;8.552;2022-12-18T15:13:07;12.35;;;8.77;;
1691;SDS011;843;52.054;8.552;2022-12-18T15:15:46;13.05;;;7.80;;
1691;SDS011;843;52.054;8.552;2022-12-18T15:18:16;10.85;;;8.23;;
1691;SDS011;843;52.054;8.552;2022-12-18T15:20:45;14.32;;;7.60;;
1691;SDS011;843;52.054;8.552;2022-12-18T15:23:17;10.85;;;8.32;;
1691;SDS011;843;52.054;8.552;2022-12-18T15:25:45;12.32;;;8.30;;
1691;SDS011;843;52.054;8.552;2022-12-18T15:28:17;19.38;;;8.77;;
1691;SDS011;843;52.054;8.552;2022-12-18T15:31:20;12.35;;;8.20;;
1691;SDS011;843;52.054;8.552;2022-12-18T15:36:50;14.40;;;9.88;;
1691;SDS011;843;52.054;8.552;2022-12-18T15:39:17;12.32;;;8.93;;